Time;durP1;ratioP1;P1;durP2;ratioP2;P2;SDS_P1;SDS_P2;PMS_P1;PMS_P2;Temp;Humidity;BMP_temperature;BMP_pressure;BME280_temperature;BME280_humidity;BME280_pressure;Samples;Min_cycle;Max_cycle;Signal;HPM_P1;HPM_P2
2023/05/18 00:00:11;;;;;;;8.35;2.60;;;6.80;99.90;;;;;;5011735;28;20041;-62
2023/05/18 00:02:39;;;;;;;8.38;2.20;;;6.80;99.90;;;;;;5015150;28;20124;-62
2023/05/18 00:05:05;;;;;;;6.47;2.13;;;6.80;99.90;;;;;;5013132;28;20399;-62
2023/05/18 00:07:35;;;;;;;6.43;2.35;;;6.70;99.90;;;;;;5016840;28;20050;-62
2023/05/18 00:10:00;;;;;;;4.40;2.10;;;6.70;99.90;;;;;;5015816;28;20041;-62
2023/05/18 00:12:26;;;;;;;6.90;2.35;;;6.70;99.90;;;;;;5024690;28;20033;-62
2023/05/18 00:14:51;;;;;;;8.52;2.30;;;6.70;99.90;;;;;;5027094;28;20112;-62
2023/05/18 00:17:19;;;;;;;7.72;2.72;;;6.60;99.90;;;;;;5009994;28;20076;-62
2023/05/18 00:19:45;;;;;;;7.93;2.28;;;6.60;99.90;;;;;;5027304;28;20049;-62
2023/05/18 00:22:17;;;;;;;7.55;2.33;;;6.50;99.90;;;;;;5023665;28;20457;-62
2023/05/18 00:24:45;;;;;;;8.77;2.35;;;6.50;99.90;;;;;;5008428;28;20077;-62
2023/05/18 00:27:10;;;;;;;6.53;2.88;;;6.50;99.90;;;;;;5018268;28;20121;-62
2023/05/18 00:29:36;;;;;;;7.95;2.75;;;6.50;99.90;;;;;;5012786;28;20120;-62
2023/05/18 00:32:02;;;;;;;7.07;2.40;;;6.50;99.90;;;;;;5018851;28;20057;-62
2023/05/18 00:34:27;;;;;;;5.47;2.58;;;6.40;99.90;;;;;;5026180;28;20065;-62
2023/05/18 00:36:53;;;;;;;5.82;2.40;;;6.40;99.90;;;;;;5030112;28;20053;-62
2023/05/18 00:39:18;;;;;;;5.78;2.20;;;6.40;99.90;;;;;;5018452;28;20056;-62
2023/05/18 00:41:44;;;;;;;5.70;2.13;;;6.40;99.90;;;;;;5014446;28;20095;-62
2023/05/18 00:44:10;;;;;;;6.53;2.50;;;6.40;99.90;;;;;;5013401;28;20122;-62
2023/05/18 00:46:36;;;;;;;7.50;2.50;;;6.30;99.90;;;;;;5024144;28;20052;-62
2023/05/18 00:49:01;;;;;;;8.15;2.80;;;6.30;99.90;;;;;;5025325;28;20075;-62
2023/05/18 00:51:28;;;;;;;6.90;2.47;;;6.30;99.90;;;;;;5022608;28;20034;-62
2023/05/18 00:53:55;;;;;;;9.05;2.85;;;6.30;99.90;;;;;;5020499;28;20036;-62
2023/05/18 00:56:25;;;;;;;9.13;2.70;;;6.20;99.90;;;;;;5024916;28;20045;-62
2023/05/18 00:58:55;;;;;;;6.85;2.55;;;6.20;99.90;;;;;;5009121;28;20038;-62
2023/05/18 01:01:27;;;;;;;8.77;2.50;;;6.20;99.90;;;;;;5015095;28;20496;-62
2023/05/18 01:03:55;;;;;;;10.52;2.70;;;6.20;99.90;;;;;;5023625;28;20108;-62
2023/05/18 01:06:24;;;;;;;9.07;2.95;;;6.20;99.90;;;;;;5029788;28;20317;-62
2023/05/18 01:08:52;;;;;;;6.43;2.80;;;6.10;99.90;;;;;;5024836;28;20037;-62
2023/05/18 01:11:32;;;;;;;6.68;2.53;;;6.10;99.90;;;;;;5010092;28;20056;-62
2023/05/18 01:14:16;;;;;;;5.97;2.50;;;6.10;99.90;;;;;;5010342;28;20037;-62
2023/05/18 01:16:52;;;;;;;5.60;2.38;;;6.10;99.90;;;;;;5007369;28;20046;-62
2023/05/18 01:20:01;;;;;;;7.13;2.65;;;6.00;99.90;;;;;;5018540;28;20034;-62
2023/05/18 01:22:49;;;;;;;10.13;2.95;;;6.00;99.90;;;;;;5010887;28;20493;-62
2023/05/18 01:25:28;;;;;;;8.65;2.95;;;6.00;99.90;;;;;;5007847;28;20455;-62
2023/05/18 01:27:56;;;;;;;7.32;2.80;;;6.00;99.90;;;;;;5008703;28;20137;-62
2023/05/18 01:30:22;;;;;;;5.25;2.58;;;6.00;99.90;;;;;;5019856;28;20137;-62
2023/05/18 01:32:47;;;;;;;6.65;2.60;;;6.00;99.90;;;;;;5014009;28;20042;-62
2023/05/18 01:35:13;;;;;;;5.40;2.30;;;5.90;99.90;;;;;;5020979;28;20042;-62
2023/05/18 01:37:38;;;;;;;8.70;2.75;;;5.90;99.90;;;;;;5025254;28;20037;-62
2023/05/18 01:40:08;;;;;;;5.97;2.60;;;5.90;99.90;;;;;;5019330;28;20467;-61
2023/05/18 01:42:40;;;;;;;5.75;2.53;;;5.80;99.90;;;;;;5023028;28;20040;-62
2023/05/18 01:45:16;;;;;;;7.97;2.85;;;5.80;99.90;;;;;;4996366;28;20094;-62
2023/05/18 01:47:45;;;;;;;7.05;3.00;;;5.80;99.90;;;;;;4998186;28;20062;-62
2023/05/18 01:50:13;;;;;;;8.98;2.78;;;5.80;99.90;;;;;;5030202;28;20053;-62
2023/05/18 01:52:56;;;;;;;7.00;2.83;;;5.70;99.90;;;;;;5027656;28;20052;-62
2023/05/18 01:55:25;;;;;;;6.93;2.40;;;5.70;99.90;;;;;;5016625;28;20041;-62
2023/05/18 01:57:52;;;;;;;7.75;2.58;;;5.80;99.90;;;;;;5015882;28;20087;-61
2023/05/18 02:00:19;;;;;;;7.13;2.60;;;5.70;99.90;;;;;;5010613;28;20114;-62
2023/05/18 02:02:44;;;;;;;9.73;2.65;;;5.60;99.90;;;;;;5000793;28;20048;-62
2023/05/18 02:05:11;;;;;;;7.60;2.60;;;5.60;99.90;;;;;;5005485;28;20037;-62
2023/05/18 02:07:38;;;;;;;6.25;2.40;;;5.70;99.90;;;;;;5022483;28;20098;-62
2023/05/18 02:10:05;;;;;;;7.57;2.97;;;5.60;99.90;;;;;;5007300;28;20296;-62
2023/05/18 02:12:31;;;;;;;9.05;2.85;;;5.50;99.90;;;;;;5013079;28;20045;-62
2023/05/18 02:14:58;;;;;;;8.18;2.90;;;5.50;99.90;;;;;;5012638;28;20040;-62
2023/05/18 02:17:25;;;;;;;11.10;3.45;;;5.50;99.90;;;;;;5003977;28;20409;-62
2023/05/18 02:19:51;;;;;;;7.65;3.08;;;5.50;99.90;;;;;;5001649;28;20042;-62
2023/05/18 02:22:16;;;;;;;8.77;2.80;;;5.50;99.90;;;;;;5027885;28;20040;-62
2023/05/18 02:24:42;;;;;;;7.78;3.50;;;5.50;99.90;;;;;;5004650;28;20775;-62
2023/05/18 02:27:08;;;;;;;9.00;3.13;;;5.50;99.90;;;;;;5008026;28;20119;-62
2023/05/18 02:29:33;;;;;;;7.15;3.30;;;5.50;99.90;;;;;;5013139;28;20045;-62
2023/05/18 02:31:59;;;;;;;7.07;3.03;;;5.50;99.90;;;;;;5007042;28;20079;-62
2023/05/18 02:34:26;;;;;;;7.82;3.15;;;5.50;99.90;;;;;;5025257;28;20116;-62
2023/05/18 02:36:52;;;;;;;9.05;3.50;;;5.50;99.90;;;;;;5007960;28;20408;-62
2023/05/18 02:39:17;;;;;;;7.68;2.85;;;5.50;99.90;;;;;;5027210;28;20406;-62
2023/05/18 02:41:43;;;;;;;11.40;3.65;;;5.50;99.90;;;;;;5021753;28;20037;-62
2023/05/18 02:44:11;;;;;;;7.53;2.88;;;5.40;99.90;;;;;;5008266;28;20120;-62
2023/05/18 02:46:36;;;;;;;6.82;3.05;;;5.50;99.90;;;;;;5011561;28;20045;-62
2023/05/18 02:49:02;;;;;;;9.65;3.33;;;5.40;99.90;;;;;;5007292;28;20108;-62
2023/05/18 02:51:29;;;;;;;9.90;3.13;;;5.40;99.90;;;;;;5008317;28;20072;-62
2023/05/18 02:53:54;;;;;;;5.97;3.08;;;5.40;99.90;;;;;;5029484;28;20043;-62
2023/05/18 02:56:20;;;;;;;6.55;2.92;;;5.30;99.90;;;;;;5021031;28;20120;-62
2023/05/18 02:58:46;;;;;;;7.10;3.00;;;5.40;99.90;;;;;;5017856;28;20487;-62
2023/05/18 03:01:11;;;;;;;7.75;3.85;;;5.40;99.90;;;;;;5023799;28;20064;-62
2023/05/18 03:03:37;;;;;;;7.45;3.28;;;5.40;99.90;;;;;;5028056;28;20494;-62
2023/05/18 03:06:04;;;;;;;7.25;3.13;;;5.40;99.90;;;;;;5008638;28;20038;-62
2023/05/18 03:08:30;;;;;;;7.03;3.17;;;5.40;99.90;;;;;;5017865;28;20042;-62
2023/05/18 03:10:57;;;;;;;7.20;3.20;;;5.40;99.90;;;;;;5006243;28;20485;-61
2023/05/18 03:13:22;;;;;;;8.90;3.50;;;5.40;99.90;;;;;;5029426;28;20503;-61
2023/05/18 03:15:49;;;;;;;9.10;3.38;;;5.30;99.90;;;;;;5016411;28;20041;-62
2023/05/18 03:18:15;;;;;;;7.60;3.40;;;5.40;99.90;;;;;;5002333;28;20042;-62
2023/05/18 03:20:42;;;;;;;10.90;4.03;;;5.30;99.90;;;;;;5011565;28;20038;-62
2023/05/18 03:23:08;;;;;;;13.45;4.30;;;5.40;99.90;;;;;;5011617;28;20510;-62
2023/05/18 03:25:36;;;;;;;9.43;3.83;;;5.40;99.90;;;;;;5021360;28;20046;-62
2023/05/18 03:28:03;;;;;;;10.75;4.00;;;5.30;99.90;;;;;;5023971;28;20483;-62
2023/05/18 03:30:33;;;;;;;10.30;4.10;;;5.30;99.90;;;;;;5018095;28;20111;-62
2023/05/18 03:33:00;;;;;;;8.15;3.85;;;5.40;99.90;;;;;;5026409;28;20508;-62
2023/05/18 03:35:26;;;;;;;8.18;3.40;;;5.30;99.90;;;;;;5017712;28;20052;-62
2023/05/18 03:37:51;;;;;;;9.65;3.63;;;5.40;99.90;;;;;;5009912;28;20120;-62
2023/05/18 03:40:18;;;;;;;9.05;3.70;;;5.40;99.90;;;;;;5015669;28;20049;-62
2023/05/18 03:42:44;;;;;;;8.85;3.72;;;5.40;99.90;;;;;;5010031;28;20111;-62
2023/05/18 03:45:11;;;;;;;11.23;3.97;;;5.40;99.90;;;;;;5007760;28;20038;-62
2023/05/18 03:47:37;;;;;;;7.53;3.40;;;5.30;99.90;;;;;;5009166;28;20045;-62
2023/05/18 03:50:04;;;;;;;8.10;3.65;;;5.40;99.90;;;;;;5025121;28;20076;-62
2023/05/18 03:52:32;;;;;;;9.13;3.60;;;5.40;99.90;;;;;;5011603;28;20042;-62
2023/05/18 03:55:00;;;;;;;6.35;3.38;;;5.30;99.90;;;;;;5023692;28;20069;-62
2023/05/18 03:57:27;;;;;;;12.10;3.65;;;5.30;99.90;;;;;;5021417;28;20048;-62
2023/05/18 03:59:52;;;;;;;9.93;3.67;;;5.30;99.90;;;;;;5031735;28;20116;-62
2023/05/18 04:02:18;;;;;;;6.82;3.28;;;5.40;99.90;;;;;;5015247;28;20571;-62
2023/05/18 04:04:46;;;;;;;5.80;3.05;;;5.30;99.90;;;;;;5010450;28;20408;-62
2023/05/18 04:07:15;;;;;;;7.82;3.58;;;5.30;99.90;;;;;;5015202;28;20041;-62
2023/05/18 04:09:42;;;;;;;7.78;3.35;;;5.30;99.90;;;;;;5012945;28;20439;-62
2023/05/18 04:12:08;;;;;;;9.15;3.83;;;5.30;99.90;;;;;;4997193;28;20468;-62
2023/05/18 04:14:35;;;;;;;7.97;3.88;;;5.40;99.90;;;;;;5032692;28;20049;-62
2023/05/18 04:17:05;;;;;;;9.50;4.28;;;5.40;99.90;;;;;;5032474;28;20396;-62
2023/05/18 04:19:32;;;;;;;13.45;4.05;;;5.40;99.90;;;;;;5020684;28;20037;-62
2023/05/18 04:21:57;;;;;;;11.80;4.18;;;5.40;99.90;;;;;;5024268;28;20041;-62
2023/05/18 04:24:26;;;;;;;7.35;3.85;;;5.40;99.90;;;;;;5014458;28;20099;-62
2023/05/18 04:26:52;;;;;;;9.65;3.80;;;5.50;99.90;;;;;;5005953;28;20048;-62
2023/05/18 04:29:18;;;;;;;6.97;3.30;;;5.20;99.90;;;;;;5018631;28;20164;-62
2023/05/18 04:31:46;;;;;;;10.18;3.97;;;5.50;99.90;;;;;;5026894;28;20049;-62
2023/05/18 04:34:12;;;;;;;6.90;3.45;;;5.50;99.90;;;;;;5016923;28;20042;-62
2023/05/18 04:36:41;;;;;;;8.60;3.50;;;5.50;99.90;;;;;;4997746;28;20118;-62
2023/05/18 04:39:08;;;;;;;6.85;3.50;;;5.50;99.90;;;;;;5024076;28;20038;-62
2023/05/18 04:41:34;;;;;;;11.90;3.70;;;5.50;99.90;;;;;;5027066;28;20057;-62
2023/05/18 04:44:00;;;;;;;7.18;3.15;;;5.50;99.90;;;;;;5023417;28;20475;-62
2023/05/18 04:46:27;;;;;;;5.80;3.08;;;5.50;99.90;;;;;;5010085;28;20052;-62
2023/05/18 04:48:56;;;;;;;7.10;3.40;;;5.50;99.90;;;;;;5013220;28;20037;-62
2023/05/18 04:51:23;;;;;;;8.38;3.42;;;5.50;99.90;;;;;;5020056;28;20069;-62
2023/05/18 04:53:51;;;;;;;8.35;3.42;;;5.50;99.90;;;;;;5006275;28;20518;-62
2023/05/18 04:56:19;;;;;;;7.88;3.10;;;5.60;99.90;;;;;;5009778;28;20416;-62
2023/05/18 04:58:47;;;;;;;10.45;3.45;;;5.60;99.90;;;;;;5011584;28;20056;-62
2023/05/18 05:01:16;;;;;;;6.78;3.28;;;5.60;99.90;;;;;;5028004;28;20044;-62
2023/05/18 05:03:42;;;;;;;9.45;3.50;;;5.60;99.90;;;;;;5011520;28;20033;-62
2023/05/18 05:06:09;;;;;;;12.00;3.63;;;5.70;99.90;;;;;;5025032;28;20049;-62
2023/05/18 05:08:36;;;;;;;8.52;3.90;;;5.70;99.90;;;;;;5011319;28;20404;-62
2023/05/18 05:11:01;;;;;;;10.90;3.95;;;5.80;99.90;;;;;;5013038;28;20125;-62
2023/05/18 05:13:27;;;;;;;12.40;3.80;;;5.80;99.90;;;;;;5021364;28;20121;-62
2023/05/18 05:15:53;;;;;;;7.32;3.58;;;5.90;99.90;;;;;;5020876;28;20081;-62
2023/05/18 05:18:18;;;;;;;9.55;3.58;;;5.90;99.90;;;;;;5011827;28;20037;-63
2023/05/18 05:20:44;;;;;;;8.80;3.55;;;6.00;99.90;;;;;;5011027;28;20045;-62
2023/05/18 05:23:10;;;;;;;8.98;4.00;;;6.00;99.90;;;;;;5012844;28;20057;-62
2023/05/18 05:25:35;;;;;;;11.88;4.03;;;6.10;99.90;;;;;;5013186;28;20048;-62
2023/05/18 05:28:01;;;;;;;8.68;4.32;;;6.10;99.90;;;;;;5055673;22;20059;-64
2023/05/18 05:30:26;;;;;;;7.10;3.85;;;6.10;99.90;;;;;;5051123;28;20035;-64
2023/05/18 05:32:52;;;;;;;8.20;3.88;;;6.20;99.90;;;;;;5069911;28;20439;-64
2023/05/18 05:35:18;;;;;;;11.98;4.53;;;6.30;99.90;;;;;;5053688;28;20071;-64
2023/05/18 05:37:43;;;;;;;8.57;4.25;;;6.30;99.90;;;;;;5070118;28;20510;-63
2023/05/18 05:40:09;;;;;;;10.05;4.18;;;6.40;99.90;;;;;;5054569;28;20136;-63
2023/05/18 05:42:35;;;;;;;9.27;3.95;;;6.50;99.90;;;;;;5062412;28;20044;-63
2023/05/18 05:45:01;;;;;;;9.20;4.00;;;6.50;99.90;;;;;;5063179;28;20039;-63
2023/05/18 05:47:26;;;;;;;10.70;3.90;;;6.60;99.90;;;;;;5065414;28;20033;-63
2023/05/18 05:49:52;;;;;;;10.57;3.75;;;6.70;99.90;;;;;;5068617;28;20446;-63
2023/05/18 05:52:18;;;;;;;9.43;3.92;;;6.80;99.90;;;;;;5068742;28;20051;-63
2023/05/18 05:54:43;;;;;;;7.05;3.58;;;7.00;99.90;;;;;;5061659;28;20033;-63
2023/05/18 05:57:09;;;;;;;7.20;3.63;;;7.20;99.90;;;;;;5070322;28;20376;-64
2023/05/18 05:59:35;;;;;;;7.82;3.05;;;7.20;99.90;;;;;;5070571;28;20055;-64
2023/05/18 06:02:01;;;;;;;9.00;3.88;;;7.30;99.90;;;;;;5057969;28;20059;-65
2023/05/18 06:04:27;;;;;;;9.75;3.60;;;7.40;99.90;;;;;;5051827;28;20128;-64
2023/05/18 06:06:52;;;;;;;8.27;3.17;;;7.40;99.90;;;;;;5069925;28;20029;-64
2023/05/18 06:09:18;;;;;;;9.52;3.38;;;7.80;99.90;;;;;;5061197;28;20106;-64
2023/05/18 06:11:44;;;;;;;8.48;3.10;;;7.60;99.90;;;;;;5059313;28;20130;-64
2023/05/18 06:14:10;;;;;;;8.77;3.25;;;7.80;99.90;;;;;;5059807;28;20275;-64
2023/05/18 06:16:36;;;;;;;9.65;2.95;;;7.90;99.90;;;;;;5050978;28;20118;-63
2023/05/18 06:19:02;;;;;;;9.38;3.08;;;8.00;99.90;;;;;;5057426;28;20036;-64
2023/05/18 06:21:28;;;;;;;6.60;2.38;;;8.10;99.90;;;;;;5064785;28;20040;-64
2023/05/18 06:23:53;;;;;;;9.32;2.70;;;8.20;99.90;;;;;;5051750;28;20048;-62
2023/05/18 06:26:21;;;;;;;10.00;2.25;;;8.30;99.90;;;;;;5038081;28;20118;-63
2023/05/18 06:28:47;;;;;;;10.25;2.55;;;8.40;99.90;;;;;;5063076;28;20041;-64
2023/05/18 06:31:13;;;;;;;8.32;2.47;;;8.60;99.90;;;;;;5063979;28;20421;-64
2023/05/18 06:33:39;;;;;;;8.27;2.42;;;8.70;99.90;;;;;;5047259;28;20070;-63
2023/05/18 06:36:05;;;;;;;11.02;2.30;;;9.00;99.90;;;;;;5058988;28;20029;-62
2023/05/18 06:38:31;;;;;;;9.57;2.72;;;8.80;99.90;;;;;;5068745;28;20514;-63
2023/05/18 06:40:56;;;;;;;7.57;2.67;;;8.90;99.90;;;;;;5062491;28;20071;-63
2023/05/18 06:43:24;;;;;;;5.75;2.33;;;9.00;99.90;;;;;;5058647;28;20071;-63
2023/05/18 06:45:50;;;;;;;9.18;2.58;;;9.00;99.90;;;;;;5062857;28;20095;-63
2023/05/18 06:48:15;;;;;;;8.80;2.40;;;9.10;99.90;;;;;;5035923;28;20073;-64
2023/05/18 06:50:41;;;;;;;7.90;2.25;;;9.20;99.90;;;;;;5053993;28;20120;-63
2023/05/18 06:53:07;;;;;;;8.35;2.53;;;9.30;99.90;;;;;;5049156;28;20141;-62
2023/05/18 06:55:32;;;;;;;8.23;2.40;;;9.40;99.90;;;;;;5050754;28;20052;-63
2023/05/18 06:57:58;;;;;;;8.13;3.08;;;9.50;99.90;;;;;;5068866;28;20378;-64
2023/05/18 07:00:24;;;;;;;9.13;2.40;;;9.60;99.90;;;;;;5046702;28;20296;-64
2023/05/18 07:02:49;;;;;;;10.35;2.38;;;9.70;99.90;;;;;;5049183;28;20036;-62
2023/05/18 07:05:15;;;;;;;7.55;2.30;;;9.80;99.90;;;;;;5035988;28;20037;-64
2023/05/18 07:07:41;;;;;;;9.88;2.45;;;9.90;99.90;;;;;;5062060;28;20036;-63
2023/05/18 07:10:07;;;;;;;7.50;2.28;;;10.00;99.90;;;;;;5069548;28;20047;-63
2023/05/18 07:12:33;;;;;;;6.70;2.20;;;10.10;99.90;;;;;;5059989;28;20045;-62
2023/05/18 07:14:58;;;;;;;7.70;2.15;;;10.10;99.90;;;;;;5063136;28;20393;-63
2023/05/18 07:17:24;;;;;;;6.85;2.17;;;10.20;99.90;;;;;;5062552;28;20056;-63
2023/05/18 07:19:50;;;;;;;7.00;2.53;;;10.30;99.90;;;;;;5068111;28;20032;-63
2023/05/18 07:22:15;;;;;;;7.80;2.10;;;10.40;99.90;;;;;;5060802;28;20024;-63
2023/05/18 07:24:42;;;;;;;10.60;2.20;;;10.40;99.90;;;;;;5058594;28;20033;-64
2023/05/18 07:27:07;;;;;;;7.50;2.35;;;10.50;99.90;;;;;;5065141;28;20044;-62
2023/05/18 07:29:33;;;;;;;10.50;2.95;;;10.50;99.90;;;;;;5065636;28;20045;-63
2023/05/18 07:31:59;;;;;;;11.77;2.70;;;10.60;99.90;;;;;;5065934;28;20032;-63
2023/05/18 07:34:26;;;;;;;7.93;2.40;;;10.70;99.90;;;;;;5068028;28;20051;-64
2023/05/18 07:36:52;;;;;;;6.15;1.88;;;10.70;99.90;;;;;;5065576;28;20125;-64
2023/05/18 07:39:18;;;;;;;8.05;2.30;;;10.80;99.90;;;;;;5059875;28;20037;-63
2023/05/18 07:41:48;;;;;;;7.78;2.22;;;10.80;99.90;;;;;;5067423;28;20094;-62
2023/05/18 07:44:14;;;;;;;7.63;2.30;;;10.90;99.90;;;;;;5061926;28;20545;-62
2023/05/18 07:46:40;;;;;;;7.78;2.25;;;10.90;99.90;;;;;;5043274;28;20084;-62
2023/05/18 07:49:06;;;;;;;6.70;2.28;;;10.90;99.90;;;;;;5064902;28;20693;-63
2023/05/18 07:51:33;;;;;;;8.15;2.17;;;10.90;99.90;;;;;;5072933;28;20111;-62
2023/05/18 07:53:58;;;;;;;8.05;2.00;;;10.90;99.90;;;;;;5068104;28;20115;-63
2023/05/18 07:56:24;;;;;;;11.05;2.50;;;10.90;99.90;;;;;;5060612;28;20128;-63
2023/05/18 07:58:50;;;;;;;7.88;2.28;;;11.00;99.90;;;;;;5064467;28;20033;-61
2023/05/18 08:01:16;;;;;;;9.93;2.30;;;11.00;99.90;;;;;;5071667;28;20041;-63
2023/05/18 08:03:42;;;;;;;7.38;2.40;;;11.00;99.90;;;;;;5072564;28;20025;-63
2023/05/18 08:06:07;;;;;;;6.50;2.33;;;11.00;99.90;;;;;;5060771;28;20045;-63
2023/05/18 08:08:36;;;;;;;6.30;2.10;;;11.10;99.90;;;;;;5047654;28;20041;-63
2023/05/18 08:11:02;;;;;;;7.43;2.30;;;11.10;99.90;;;;;;5059189;28;20040;-63
2023/05/18 08:13:28;;;;;;;8.70;2.47;;;11.20;99.90;;;;;;5045999;28;20532;-64
2023/05/18 08:15:54;;;;;;;6.85;2.38;;;11.30;99.90;;;;;;5067473;28;20238;-62
2023/05/18 08:18:19;;;;;;;5.22;2.08;;;11.40;99.90;;;;;;5068612;28;20407;-63
2023/05/18 08:20:45;;;;;;;7.28;2.28;;;11.50;99.90;;;;;;5054134;28;20032;-63
2023/05/18 08:23:11;;;;;;;7.15;2.25;;;11.60;99.90;;;;;;5045453;28;20441;-62
2023/05/18 08:25:36;;;;;;;6.60;2.13;;;11.70;99.90;;;;;;5062311;28;20730;-64
2023/05/18 08:28:02;;;;;;;8.73;2.40;;;11.80;99.90;;;;;;5068927;28;20407;-63
2023/05/18 08:30:28;;;;;;;10.57;2.28;;;12.00;99.90;;;;;;5048292;28;20597;-64
2023/05/18 08:32:53;;;;;;;9.00;2.80;;;12.10;99.90;;;;;;5071101;28;20059;-63
2023/05/18 08:35:19;;;;;;;8.73;2.50;;;12.30;99.90;;;;;;5067708;28;20032;-62
2023/05/18 08:37:45;;;;;;;9.18;2.60;;;12.40;99.90;;;;;;5033074;28;20502;-63
2023/05/18 08:40:11;;;;;;;7.70;2.58;;;12.60;99.90;;;;;;5060097;28;20086;-64
2023/05/18 08:42:53;;;;;;;5.65;2.25;;;12.80;99.90;;;;;;5058446;28;20671;-64
2023/05/18 08:45:47;;;;;;;4.63;2.10;;;12.80;99.90;;;;;;5061246;28;20399;-64
2023/05/18 08:48:15;;;;;;;10.02;2.70;;;12.80;99.90;;;;;;5046461;28;20439;-64
2023/05/18 08:50:42;;;;;;;7.30;2.30;;;12.90;99.90;;;;;;5047189;28;20475;-64
2023/05/18 08:53:10;;;;;;;10.65;2.70;;;12.90;99.90;;;;;;5069416;28;20090;-64
2023/05/18 08:55:36;;;;;;;6.90;2.30;;;13.10;99.90;;;;;;5058230;28;20101;-64
2023/05/18 08:58:06;;;;;;;7.97;2.40;;;13.30;99.90;;;;;;5065241;28;20029;-64
2023/05/18 09:00:32;;;;;;;7.22;2.17;;;13.70;99.90;;;;;;5052070;28;20047;-65
2023/05/18 09:02:58;;;;;;;11.18;3.03;;;14.00;99.90;;;;;;5049021;28;20170;-64
2023/05/18 09:05:23;;;;;;;9.00;2.53;;;14.20;99.90;;;;;;5064054;28;20445;-64
2023/05/18 09:07:50;;;;;;;8.68;2.42;;;14.20;99.90;;;;;;5070216;28;20115;-64
2023/05/18 09:10:16;;;;;;;8.55;2.67;;;14.20;99.90;;;;;;5045581;28;20050;-64
2023/05/18 09:12:45;;;;;;;8.65;2.20;;;14.10;99.80;;;;;;5071520;28;20036;-63
2023/05/18 09:15:13;;;;;;;6.53;2.30;;;14.20;99.80;;;;;;5070464;28;20036;-64
2023/05/18 09:17:38;;;;;;;7.05;2.55;;;14.30;99.90;;;;;;5058003;28;20394;-64
2023/05/18 09:20:05;;;;;;;8.05;2.45;;;14.50;99.80;;;;;;5059802;28;20053;-63
2023/05/18 09:22:34;;;;;;;6.38;2.20;;;14.80;99.60;;;;;;5053532;28;20062;-64
2023/05/18 09:25:04;;;;;;;9.10;2.33;;;15.00;99.50;;;;;;5069763;28;20111;-65
2023/05/18 09:27:30;;;;;;;8.90;2.30;;;15.30;98.50;;;;;;5069417;28;20040;-65
2023/05/18 09:29:57;;;;;;;8.30;2.60;;;15.20;98.10;;;;;;5052970;28;20385;-64
2023/05/18 09:32:24;;;;;;;6.07;2.45;;;15.30;98.30;;;;;;5061456;28;20041;-64
2023/05/18 09:34:50;;;;;;;5.60;2.00;;;15.20;97.00;;;;;;5052745;28;20524;-65
2023/05/18 09:37:19;;;;;;;6.32;2.10;;;15.20;97.00;;;;;;5065903;28;20565;-64
2023/05/18 09:40:06;;;;;;;10.07;2.30;;;15.30;97.00;;;;;;5044501;28;20036;-64
2023/05/18 09:42:39;;;;;;;6.72;2.28;;;15.50;96.90;;;;;;5049550;28;20402;-65
2023/05/18 09:45:27;;;;;;;6.75;2.38;;;15.60;96.50;;;;;;5050636;28;20105;-65
2023/05/18 09:47:53;;;;;;;4.75;2.08;;;15.80;95.70;;;;;;5047067;28;20051;-64
2023/05/18 09:50:20;;;;;;;7.07;2.40;;;16.10;96.20;;;;;;5069991;28;20049;-64
2023/05/18 09:52:48;;;;;;;7.10;2.30;;;16.30;95.90;;;;;;5063742;28;20111;-65
2023/05/18 09:55:19;;;;;;;7.45;2.10;;;16.50;95.30;;;;;;5070121;28;20490;-64
2023/05/18 09:57:46;;;;;;;;;;;16.70;93.90;;;;;;5070725;28;20036;-64
2023/05/18 10:00:14;;;;;;;8.60;2.35;;;16.80;91.90;;;;;;5045950;28;19917;-64
2023/05/18 10:02:42;;;;;;;8.27;2.50;;;17.00;93.70;;;;;;5052436;28;20040;-64
2023/05/18 10:05:30;;;;;;;6.07;2.30;;;17.10;92.50;;;;;;5062860;28;20121;-63
2023/05/18 10:07:56;;;;;;;6.57;2.00;;;17.10;91.60;;;;;;5068568;28;20510;-64
2023/05/18 10:10:28;;;;;;;6.38;2.28;;;17.20;93.00;;;;;;5070249;28;20028;-64
2023/05/18 10:12:54;;;;;;;8.57;2.45;;;17.30;92.40;;;;;;5070819;28;20107;-64
2023/05/18 10:15:22;;;;;;;8.35;2.55;;;17.30;92.40;;;;;;5069646;28;20032;-65
2023/05/18 10:17:49;;;;;;;5.63;2.30;;;17.30;91.70;;;;;;5070352;28;20044;-64
2023/05/18 10:20:20;;;;;;;6.68;2.45;;;17.50;91.50;;;;;;5046185;28;20052;-64
2023/05/18 10:22:47;;;;;;;5.53;2.30;;;17.50;90.80;;;;;;5069725;28;20072;-65
2023/05/18 10:25:19;;;;;;;9.20;2.35;;;17.60;90.60;;;;;;5069597;28;20094;-64
2023/05/18 10:27:47;;;;;;;8.70;2.28;;;17.70;89.60;;;;;;5070170;28;20044;-65
2023/05/18 10:30:13;;;;;;;5.40;2.17;;;17.80;89.20;;;;;;5069899;28;20037;-66
2023/05/18 10:32:41;;;;;;;9.70;2.40;;;18.00;89.40;;;;;;5070563;28;20115;-65
2023/05/18 10:35:08;;;;;;;7.72;2.65;;;18.10;89.10;;;;;;5066315;28;20041;-65
2023/05/18 10:37:36;;;;;;;5.22;2.28;;;18.20;87.90;;;;;;5067187;28;20108;-65
2023/05/18 10:40:02;;;;;;;5.63;2.20;;;18.30;87.00;;;;;;5063974;28;20335;-65
2023/05/18 10:42:30;;;;;;;8.15;2.53;;;18.30;85.80;;;;;;5037737;28;20066;-65
2023/05/18 10:44:56;;;;;;;6.95;2.15;;;18.40;86.40;;;;;;5068594;28;20481;-65
2023/05/18 10:47:26;;;;;;;7.30;2.50;;;18.40;84.90;;;;;;5050998;28;20040;-65
2023/05/18 10:49:53;;;;;;;6.50;2.45;;;18.40;83.60;;;;;;5070072;28;20067;-65
2023/05/18 10:52:19;;;;;;;5.90;2.17;;;18.40;83.10;;;;;;5068487;28;20223;-66
2023/05/18 10:54:45;;;;;;;7.28;2.50;;;18.50;83.00;;;;;;5062051;28;20045;-64
2023/05/18 10:57:14;;;;;;;8.05;2.60;;;18.50;82.30;;;;;;5069486;28;20621;-66
2023/05/18 10:59:42;;;;;;;10.20;3.00;;;18.40;80.00;;;;;;5070153;28;20032;-65
2023/05/18 11:02:14;;;;;;;7.72;2.58;;;18.30;80.80;;;;;;5069767;28;20090;-65
2023/05/18 11:04:40;;;;;;;8.98;2.78;;;18.30;80.50;;;;;;5045278;28;20120;-65
2023/05/18 11:07:11;;;;;;;7.53;2.65;;;18.30;80.50;;;;;;5072362;28;20123;-65
2023/05/18 11:09:40;;;;;;;8.63;2.28;;;18.30;78.60;;;;;;5073252;28;20397;-65
2023/05/18 11:12:11;;;;;;;7.15;2.33;;;18.30;80.10;;;;;;5069127;28;20482;-65
2023/05/18 11:14:56;;;;;;;6.32;2.38;;;18.40;80.00;;;;;;5058050;28;20055;-66
2023/05/18 11:17:24;;;;;;;6.35;2.35;;;18.50;79.80;;;;;;5039204;28;20081;-65
2023/05/18 11:20:05;;;;;;;6.80;2.33;;;18.60;80.60;;;;;;5075154;28;20036;-65
2023/05/18 11:23:13;;;;;;;8.45;2.65;;;18.80;77.90;;;;;;5050918;28;20376;-65
2023/05/18 11:25:41;;;;;;;8.05;2.53;;;19.00;77.40;;;;;;5069616;28;20117;-65
2023/05/18 11:28:10;;;;;;;8.13;2.33;;;19.10;78.90;;;;;;5075424;22;20041;-62
2023/05/18 11:30:35;;;;;;;5.72;2.40;;;19.20;77.60;;;;;;5037739;28;20037;-63
2023/05/18 11:33:08;;;;;;;8.73;2.60;;;19.40;76.80;;;;;;5056281;28;20040;-62
2023/05/18 11:35:53;;;;;;;6.60;2.47;;;19.30;74.10;;;;;;5050329;28;20491;-64
2023/05/18 11:38:18;;;;;;;6.88;2.72;;;19.40;73.70;;;;;;5028388;28;20076;-62
2023/05/18 11:40:49;;;;;;;9.82;2.53;;;19.30;75.20;;;;;;5036638;28;20072;-62
2023/05/18 11:43:22;;;;;;;5.47;2.60;;;19.40;74.90;;;;;;5054378;28;20033;-62
2023/05/18 11:45:53;;;;;;;7.70;2.55;;;19.40;74.00;;;;;;5055370;28;20044;-62
2023/05/18 11:48:27;;;;;;;5.47;2.70;;;19.50;74.90;;;;;;5040895;28;20080;-64
2023/05/18 11:50:53;;;;;;;7.47;2.75;;;19.60;75.10;;;;;;5055700;28;20036;-63
2023/05/18 11:53:22;;;;;;;8.23;2.92;;;19.50;74.70;;;;;;5055973;28;20521;-62
2023/05/18 11:55:55;;;;;;;10.10;2.78;;;19.50;73.70;;;;;;5054041;28;20079;-62
2023/05/18 11:58:23;;;;;;;8.05;2.60;;;19.50;73.60;;;;;;5056042;28;20037;-64
2023/05/18 12:00:50;;;;;;;7.30;2.60;;;19.60;73.80;;;;;;5055495;28;20043;-62
2023/05/18 12:03:16;;;;;;;5.32;2.40;;;19.60;73.70;;;;;;5034605;28;20048;-62
2023/05/18 12:05:47;;;;;;;7.68;2.47;;;19.70;73.50;;;;;;5052728;28;20095;-62
2023/05/18 12:08:16;;;;;;;6.07;2.40;;;19.70;73.70;;;;;;5055705;28;20441;-62
2023/05/18 12:10:48;;;;;;;6.13;2.60;;;19.80;73.60;;;;;;5048641;28;20029;-62
2023/05/18 12:13:16;;;;;;;6.60;2.55;;;19.80;72.60;;;;;;5049768;28;20446;-62
2023/05/18 12:15:43;;;;;;;6.30;2.45;;;19.90;72.40;;;;;;5051498;28;20036;-62
2023/05/18 12:18:09;;;;;;;7.25;2.35;;;20.00;72.70;;;;;;5049551;28;20628;-62
2023/05/18 12:20:38;;;;;;;8.20;2.60;;;20.00;72.50;;;;;;5050249;28;20294;-62
2023/05/18 12:23:03;;;;;;;7.22;2.63;;;20.10;72.40;;;;;;5044892;28;20047;-62
2023/05/18 12:25:29;;;;;;;8.70;2.65;;;20.10;73.20;;;;;;5028828;28;20487;-65
2023/05/18 12:27:58;;;;;;;5.75;2.70;;;20.20;73.10;;;;;;5048016;28;20388;-62
2023/05/18 12:30:33;;;;;;;8.68;2.42;;;20.10;72.00;;;;;;5046199;28;20033;-64
2023/05/18 12:33:01;;;;;;;7.38;2.50;;;20.10;71.80;;;;;;5034017;28;20079;-65
2023/05/18 12:35:28;;;;;;;6.75;2.58;;;20.20;71.20;;;;;;5047666;28;20033;-62
2023/05/18 12:37:54;;;;;;;6.57;2.53;;;20.20;71.60;;;;;;5051611;28;20178;-65
2023/05/18 12:40:21;;;;;;;7.07;2.17;;;20.30;71.80;;;;;;5048549;28;20044;-63
2023/05/18 12:43:05;;;;;;;6.60;2.33;;;20.40;70.90;;;;;;5052242;28;20082;-62
2023/05/18 12:45:31;;;;;;;7.22;2.40;;;20.40;69.10;;;;;;5048540;28;20500;-63
2023/05/18 12:48:10;;;;;;;6.38;2.38;;;20.50;69.70;;;;;;5051993;28;20048;-63
2023/05/18 12:50:49;;;;;;;6.95;2.65;;;20.50;68.60;;;;;;5049275;28;20411;-64
2023/05/18 12:53:15;;;;;;;6.75;3.00;;;20.50;67.30;;;;;;5035734;28;20077;-63